Terminal Aerodrome Forecast
Issued by NWS

Home | Current Version | Previous Version | Text Only | Print | Product List | Glossary On
Versions: 1 2 3 4 5 6 7 8 9 10 11 12 13 14
937
FTUS44 KMAF 182326
TAFHOB
TAF
KHOB 182326Z 1900/1924 20018G28KT P6SM SCT120 BKN200
     FM190100 19011KT P6SM BKN150
     FM192100 22021G27KT P6SM SCT060 BKN120=

USA.gov is the U.S. government's official web portal to all federal, state and local government web resources and services.